Time;durP1;ratioP1;P1;durP2;ratioP2;P2;SDS_P1;SDS_P2;PMS_P1;PMS_P2;Temp;Humidity;BMP_temperature;BMP_pressure;BME280_temperature;BME280_humidity;BME280_pressure;Samples;Min_cycle;Max_cycle;Signal;HPM_P1;HPM_P2
2022/03/25 00:01:38;;;;;;;15.47;12.37;;;;;;;;;;4503490;28;20043;-60
2022/03/25 00:03:49;;;;;;;15.63;12.03;;;;;;;;;;4501468;28;33607;-60
2022/03/25 00:06:00;;;;;;;14.45;11.63;;;;;;;;;;4503553;28;20038;-60
2022/03/25 00:08:10;;;;;;;13.47;10.07;;;;;;;;;;4504053;28;20474;-60
2022/03/25 00:10:21;;;;;;;13.67;10.27;;;;;;;;;;4502836;28;20137;-60
2022/03/25 00:12:31;;;;;;;15.07;11.70;;;;;;;;;;4501958;28;42664;-60
2022/03/25 00:14:42;;;;;;;15.37;12.40;;;;;;;;;;4503098;28;20029;-60
2022/03/25 00:16:52;;;;;;;15.00;11.87;;;;;;;;;;4503745;28;20034;-60
2022/03/25 00:19:03;;;;;;;16.43;12.57;;;;;;;;;;4502058;28;20809;-60
2022/03/25 00:21:14;;;;;;;16.08;12.00;;;;;;;;;;4503517;28;20561;-60
2022/03/25 00:23:25;;;;;;;15.03;12.70;;;;;;;;;;4504010;28;20034;-60
2022/03/25 00:25:35;;;;;;;16.77;12.45;;;;;;;;;;4503828;28;20072;-60
2022/03/25 00:27:46;;;;;;;16.40;12.57;;;;;;;;;;4503726;28;20052;-60
2022/03/25 00:29:56;;;;;;;14.63;12.53;;;;;;;;;;4501146;28;20038;-60
2022/03/25 00:32:07;;;;;;;14.80;11.53;;;;;;;;;;4503321;28;20053;-60
2022/03/25 00:34:18;;;;;;;16.27;11.97;;;;;;;;;;4488352;28;20974;-60
2022/03/25 00:36:28;;;;;;;14.70;11.13;;;;;;;;;;4502152;28;20034;-60
2022/03/25 00:38:39;;;;;;;16.07;12.47;;;;;;;;;;4502052;28;37606;-60
2022/03/25 00:40:50;;;;;;;15.13;11.93;;;;;;;;;;4503388;28;20163;-60
2022/03/25 00:43:00;;;;;;;16.33;12.43;;;;;;;;;;4503315;28;20338;-60
2022/03/25 00:45:11;;;;;;;18.87;12.83;;;;;;;;;;4487492;28;20042;-60
2022/03/25 00:47:22;;;;;;;16.90;12.77;;;;;;;;;;4503819;28;20030;-60
2022/03/25 00:49:33;;;;;;;18.00;12.55;;;;;;;;;;4485987;28;20092;-60
2022/03/25 00:51:43;;;;;;;15.70;12.63;;;;;;;;;;4502202;28;20087;-60
2022/03/25 00:53:55;;;;;;;15.63;12.68;;;;;;;;;;4502564;28;20042;-60
2022/03/25 00:56:05;;;;;;;15.98;11.77;;;;;;;;;;4503673;28;20030;-61
2022/03/25 00:58:16;;;;;;;15.07;11.67;;;;;;;;;;4503371;28;20486;-60
2022/03/25 01:00:26;;;;;;;13.73;11.47;;;;;;;;;;4502666;28;20038;-60
2022/03/25 01:02:38;;;;;;;14.60;11.82;;;;;;;;;;4498690;28;20033;-61
2022/03/25 01:04:49;;;;;;;16.05;11.68;;;;;;;;;;4503217;28;20509;-60
2022/03/25 01:07:00;;;;;;;15.17;11.33;;;;;;;;;;4502120;28;20042;-60
2022/03/25 01:09:10;;;;;;;15.00;11.25;;;;;;;;;;4502123;28;20124;-60
2022/03/25 01:11:21;;;;;;;15.43;11.73;;;;;;;;;;4502869;28;29158;-60
2022/03/25 01:13:33;;;;;;;14.13;11.17;;;;;;;;;;4503452;28;20030;-61
2022/03/25 01:15:45;;;;;;;15.23;11.40;;;;;;;;;;4503332;28;20585;-60
2022/03/25 01:17:55;;;;;;;13.97;11.30;;;;;;;;;;4502669;28;20043;-60
2022/03/25 01:20:06;;;;;;;14.57;11.13;;;;;;;;;;4502541;28;20050;-60
2022/03/25 01:22:17;;;;;;;14.75;10.95;;;;;;;;;;4502914;28;20033;-60
2022/03/25 01:24:27;;;;;;;14.43;11.37;;;;;;;;;;4501668;28;20046;-60
2022/03/25 01:26:39;;;;;;;14.27;11.37;;;;;;;;;;4503182;28;20390;-60
2022/03/25 01:28:50;;;;;;;15.30;11.88;;;;;;;;;;4502559;28;20303;-60
2022/03/25 01:31:02;;;;;;;16.23;11.35;;;;;;;;;;4501465;28;20041;-60
2022/03/25 01:33:17;;;;;;;14.18;11.55;;;;;;;;;;4502724;28;20864;-61
2022/03/25 01:35:28;;;;;;;15.85;11.98;;;;;;;;;;4502944;28;20647;-61
2022/03/25 01:37:39;;;;;;;13.37;10.60;;;;;;;;;;4501976;28;20041;-61
2022/03/25 01:39:49;;;;;;;13.27;10.53;;;;;;;;;;4501975;28;20038;-61
2022/03/25 01:42:00;;;;;;;14.27;10.07;;;;;;;;;;4499763;28;20046;-61
2022/03/25 01:44:11;;;;;;;15.67;10.90;;;;;;;;;;4499433;28;20045;-61
2022/03/25 01:46:22;;;;;;;14.55;11.57;;;;;;;;;;4501266;28;20707;-61
2022/03/25 01:48:33;;;;;;;14.50;10.70;;;;;;;;;;4487587;28;20034;-61
2022/03/25 01:50:45;;;;;;;15.90;10.87;;;;;;;;;;4500783;28;20045;-61
2022/03/25 01:52:56;;;;;;;13.60;11.13;;;;;;;;;;4496715;28;20164;-61
2022/03/25 01:55:21;;;;;;;15.33;11.10;;;;;;;;;;4493336;28;20040;-61
2022/03/25 01:57:31;;;;;;;13.80;10.68;;;;;;;;;;4502484;28;20042;-60
2022/03/25 01:59:42;;;;;;;13.87;11.07;;;;;;;;;;4501286;28;20041;-61
2022/03/25 02:01:56;;;;;;;14.57;11.40;;;;;;;;;;4501636;28;34326;-61
2022/03/25 02:04:06;;;;;;;13.80;11.32;;;;;;;;;;4501576;28;20816;-61
2022/03/25 02:06:17;;;;;;;13.87;11.17;;;;;;;;;;4501181;28;20034;-61
2022/03/25 02:08:27;;;;;;;16.03;12.60;;;;;;;;;;4500501;28;20032;-61
2022/03/25 02:10:39;;;;;;;14.97;11.63;;;;;;;;;;4502797;28;20042;-61
2022/03/25 02:12:50;;;;;;;15.00;11.52;;;;;;;;;;4494705;28;20034;-61
2022/03/25 02:15:02;;;;;;;14.27;11.70;;;;;;;;;;4502109;28;20494;-61
2022/03/25 02:17:13;;;;;;;14.48;11.20;;;;;;;;;;4500499;28;20088;-61
2022/03/25 02:19:25;;;;;;;14.80;11.07;;;;;;;;;;4501368;28;20089;-60
2022/03/25 02:21:38;;;;;;;15.55;11.45;;;;;;;;;;4502718;28;20034;-61
2022/03/25 02:23:49;;;;;;;16.33;12.30;;;;;;;;;;4500773;28;20034;-61
2022/03/25 02:26:00;;;;;;;15.30;12.07;;;;;;;;;;4501444;28;20066;-61
2022/03/25 02:28:11;;;;;;;15.55;12.10;;;;;;;;;;4491234;28;20037;-60
2022/03/25 02:30:25;;;;;;;14.18;11.43;;;;;;;;;;4503819;28;20033;-61
2022/03/25 02:32:36;;;;;;;15.07;12.23;;;;;;;;;;4502116;28;20042;-60
2022/03/25 02:34:46;;;;;;;14.07;11.50;;;;;;;;;;4487864;28;20507;-61
2022/03/25 02:36:57;;;;;;;13.17;10.17;;;;;;;;;;4503020;28;20057;-60
2022/03/25 02:39:09;;;;;;;14.23;11.00;;;;;;;;;;4503196;28;32905;-61
2022/03/25 02:41:20;;;;;;;13.45;11.25;;;;;;;;;;4504070;28;20664;-61
2022/03/25 02:43:31;;;;;;;14.70;10.97;;;;;;;;;;4487906;28;20171;-63
2022/03/25 02:45:47;;;;;;;14.13;11.00;;;;;;;;;;4506845;28;20318;-61
2022/03/25 02:47:59;;;;;;;14.63;11.17;;;;;;;;;;4503642;28;33942;-61
2022/03/25 02:50:09;;;;;;;14.68;11.77;;;;;;;;;;4502753;28;20098;-61
2022/03/25 02:52:20;;;;;;;15.00;12.47;;;;;;;;;;4505063;28;20132;-60
2022/03/25 02:54:30;;;;;;;14.40;11.23;;;;;;;;;;4503707;28;20141;-61
2022/03/25 02:56:40;;;;;;;14.60;11.03;;;;;;;;;;4504091;28;25205;-61
2022/03/25 02:58:51;;;;;;;14.43;11.10;;;;;;;;;;4505086;28;32110;-61
2022/03/25 03:01:02;;;;;;;13.87;10.90;;;;;;;;;;4504429;28;20038;-61
2022/03/25 03:03:12;;;;;;;13.80;11.40;;;;;;;;;;4505470;28;20030;-61
2022/03/25 03:05:22;;;;;;;14.30;11.37;;;;;;;;;;4503184;28;20034;-61
2022/03/25 03:07:35;;;;;;;14.73;11.43;;;;;;;;;;4502049;28;20042;-61
2022/03/25 03:09:46;;;;;;;14.10;11.70;;;;;;;;;;4503112;28;20033;-61
2022/03/25 03:11:56;;;;;;;13.80;10.90;;;;;;;;;;4503733;28;20049;-61
2022/03/25 03:14:06;;;;;;;14.17;11.47;;;;;;;;;;4505681;28;20033;-61
2022/03/25 03:16:17;;;;;;;13.23;10.57;;;;;;;;;;4504274;28;44713;-60
2022/03/25 03:18:27;;;;;;;15.03;11.40;;;;;;;;;;4503040;28;24516;-61
2022/03/25 03:20:38;;;;;;;13.90;11.10;;;;;;;;;;4504852;28;36369;-61
2022/03/25 03:22:48;;;;;;;14.60;10.27;;;;;;;;;;4504273;28;20033;-64
2022/03/25 03:24:59;;;;;;;14.20;11.33;;;;;;;;;;4505070;28;20541;-61
2022/03/25 03:27:11;;;;;;;14.38;11.43;;;;;;;;;;4505471;28;20038;-60
2022/03/25 03:29:21;;;;;;;13.75;10.82;;;;;;;;;;4489821;28;20088;-61
2022/03/25 03:31:31;;;;;;;12.37;10.00;;;;;;;;;;4502733;28;20121;-61
2022/03/25 03:33:42;;;;;;;13.67;10.80;;;;;;;;;;4504618;28;20613;-61
2022/03/25 03:35:52;;;;;;;13.00;10.47;;;;;;;;;;4505160;28;20572;-61
2022/03/25 03:38:04;;;;;;;14.57;10.60;;;;;;;;;;4504103;28;33362;-61
2022/03/25 03:40:15;;;;;;;14.35;10.60;;;;;;;;;;4502567;28;20042;-61
2022/03/25 03:42:25;;;;;;;12.23;9.82;;;;;;;;;;4505425;28;22654;-61
2022/03/25 03:44:36;;;;;;;14.03;11.27;;;;;;;;;;4503346;28;20157;-61
2022/03/25 03:46:47;;;;;;;14.23;10.88;;;;;;;;;;4503727;28;20608;-61
2022/03/25 03:48:57;;;;;;;14.90;11.60;;;;;;;;;;4504553;28;20644;-61
2022/03/25 03:51:08;;;;;;;16.23;11.40;;;;;;;;;;4502850;28;20160;-61
2022/03/25 03:53:18;;;;;;;13.70;11.10;;;;;;;;;;4504195;28;20104;-61
2022/03/25 03:55:28;;;;;;;15.53;11.60;;;;;;;;;;4504657;28;20498;-61
2022/03/25 03:57:39;;;;;;;12.67;10.80;;;;;;;;;;4504304;28;20034;-61
2022/03/25 03:59:50;;;;;;;13.60;10.53;;;;;;;;;;4502982;28;20077;-61
2022/03/25 04:02:00;;;;;;;14.27;10.50;;;;;;;;;;4507441;28;20053;-60
2022/03/25 04:04:11;;;;;;;13.80;10.97;;;;;;;;;;4504168;28;20124;-61
2022/03/25 04:06:22;;;;;;;14.73;9.90;;;;;;;;;;4502325;28;20554;-61
2022/03/25 04:08:34;;;;;;;14.25;10.05;;;;;;;;;;4503424;28;20765;-61
2022/03/25 04:10:45;;;;;;;12.68;9.70;;;;;;;;;;4504530;28;20113;-61
2022/03/25 04:12:55;;;;;;;13.70;10.23;;;;;;;;;;4503358;28;20104;-61
2022/03/25 04:15:09;;;;;;;14.80;11.27;;;;;;;;;;4504490;28;20124;-61
2022/03/25 04:17:20;;;;;;;14.52;11.73;;;;;;;;;;4504319;28;20030;-61
2022/03/25 04:19:30;;;;;;;15.30;11.67;;;;;;;;;;4485472;28;21082;-61
2022/03/25 04:21:41;;;;;;;14.87;10.53;;;;;;;;;;4503266;28;21904;-61
2022/03/25 04:23:51;;;;;;;14.03;11.07;;;;;;;;;;4504420;28;34404;-60
2022/03/25 04:26:02;;;;;;;13.87;10.00;;;;;;;;;;4504765;28;20034;-61
2022/03/25 04:28:12;;;;;;;12.70;10.57;;;;;;;;;;4502675;28;20482;-61
2022/03/25 04:30:28;;;;;;;13.17;10.63;;;;;;;;;;4504336;28;20044;-60
2022/03/25 04:32:38;;;;;;;14.70;10.25;;;;;;;;;;4502900;28;20065;-61
2022/03/25 04:34:48;;;;;;;14.93;10.90;;;;;;;;;;4502947;28;27963;-61
2022/03/25 04:36:59;;;;;;;13.20;9.80;;;;;;;;;;4502484;28;42490;-61
2022/03/25 04:39:09;;;;;;;13.40;10.43;;;;;;;;;;4503082;28;20438;-61
2022/03/25 04:41:20;;;;;;;13.93;10.13;;;;;;;;;;4496755;28;20058;-61
2022/03/25 04:43:30;;;;;;;13.53;10.37;;;;;;;;;;4503885;28;20037;-61
2022/03/25 04:45:40;;;;;;;13.53;10.67;;;;;;;;;;4504168;28;20932;-61
2022/03/25 04:47:51;;;;;;;13.70;9.93;;;;;;;;;;4503728;28;20096;-61
2022/03/25 04:50:02;;;;;;;12.98;10.18;;;;;;;;;;4502466;28;20481;-61
2022/03/25 04:52:13;;;;;;;12.90;9.53;;;;;;;;;;4503017;28;20097;-61
2022/03/25 04:54:24;;;;;;;14.80;10.30;;;;;;;;;;4503894;28;20623;-61
2022/03/25 04:56:36;;;;;;;12.67;9.40;;;;;;;;;;4503008;28;20029;-61
2022/03/25 04:58:46;;;;;;;12.43;9.77;;;;;;;;;;4502811;28;20077;-61
2022/03/25 05:00:57;;;;;;;13.43;10.00;;;;;;;;;;4502443;28;28103;-61
2022/03/25 05:03:07;;;;;;;12.10;9.97;;;;;;;;;;4503765;28;20493;-61
2022/03/25 05:05:17;;;;;;;13.93;9.97;;;;;;;;;;4503418;28;20054;-61
2022/03/25 05:07:28;;;;;;;14.23;10.87;;;;;;;;;;4503079;28;20080;-61
2022/03/25 05:09:39;;;;;;;13.77;10.30;;;;;;;;;;4503357;28;20042;-61
2022/03/25 05:11:49;;;;;;;14.07;10.20;;;;;;;;;;4502397;28;20037;-61
2022/03/25 05:13:59;;;;;;;12.70;10.10;;;;;;;;;;4503352;28;22588;-60
2022/03/25 05:16:10;;;;;;;15.83;11.03;;;;;;;;;;4501299;28;39365;-61
2022/03/25 05:18:23;;;;;;;14.90;11.43;;;;;;;;;;4503587;28;20092;-61
2022/03/25 05:20:33;;;;;;;13.45;10.82;;;;;;;;;;4502964;28;20050;-61
2022/03/25 05:22:47;;;;;;;13.03;10.20;;;;;;;;;;4502633;28;20093;-61
2022/03/25 05:24:58;;;;;;;14.77;10.88;;;;;;;;;;4502481;28;20033;-61
2022/03/25 05:27:08;;;;;;;13.45;10.75;;;;;;;;;;4503096;28;20030;-61
2022/03/25 05:29:19;;;;;;;15.00;11.03;;;;;;;;;;4502443;28;31969;-61
2022/03/25 05:31:29;;;;;;;15.77;11.37;;;;;;;;;;4502340;28;20073;-61
2022/03/25 05:33:40;;;;;;;14.07;11.23;;;;;;;;;;4501093;28;20125;-61
2022/03/25 05:35:50;;;;;;;13.67;10.73;;;;;;;;;;4501772;28;20030;-60
2022/03/25 05:38:01;;;;;;;13.53;10.50;;;;;;;;;;4502524;28;20121;-61
2022/03/25 05:40:12;;;;;;;14.03;10.77;;;;;;;;;;4500295;28;20086;-61
2022/03/25 05:42:23;;;;;;;13.52;10.98;;;;;;;;;;4501087;28;20088;-61
2022/03/25 05:44:33;;;;;;;13.13;10.43;;;;;;;;;;4501175;28;20040;-61
2022/03/25 05:46:44;;;;;;;13.17;10.90;;;;;;;;;;4500001;28;20196;-61
2022/03/25 05:48:54;;;;;;;16.40;10.53;;;;;;;;;;4499785;28;20056;-61
2022/03/25 05:51:05;;;;;;;13.43;10.30;;;;;;;;;;4501282;28;20058;-61
2022/03/25 05:53:15;;;;;;;14.10;10.63;;;;;;;;;;4501393;28;20038;-61
2022/03/25 05:55:25;;;;;;;14.77;10.57;;;;;;;;;;4499635;28;26249;-60
2022/03/25 05:57:36;;;;;;;15.00;10.80;;;;;;;;;;4501415;28;20053;-61
2022/03/25 05:59:46;;;;;;;15.40;11.87;;;;;;;;;;4500243;28;35692;-60
2022/03/25 06:01:57;;;;;;;14.03;10.87;;;;;;;;;;4500727;28;20034;-60
2022/03/25 06:04:08;;;;;;;13.65;10.57;;;;;;;;;;4501711;28;20038;-61
2022/03/25 06:06:19;;;;;;;14.43;10.80;;;;;;;;;;4501968;28;20034;-61
2022/03/25 06:08:30;;;;;;;14.13;10.53;;;;;;;;;;4503393;28;20026;-59
2022/03/25 06:10:41;;;;;;;13.98;10.43;;;;;;;;;;4504727;28;21237;-59
2022/03/25 06:12:52;;;;;;;;;;;;;;;;;;4505465;28;20037;-59
2022/03/25 06:15:03;;;;;;;13.93;10.35;;;;;;;;;;4503691;28;20640;-59
2022/03/25 06:17:14;;;;;;;13.70;10.40;;;;;;;;;;4503619;28;20022;-59
2022/03/25 06:19:24;;;;;;;15.40;10.97;;;;;;;;;;4496402;28;20042;-59
2022/03/25 06:21:34;;;;;;;13.13;10.63;;;;;;;;;;4504188;28;21097;-59
2022/03/25 06:23:45;;;;;;;13.57;10.23;;;;;;;;;;4505208;28;20049;-62
2022/03/25 06:25:55;;;;;;;14.20;10.53;;;;;;;;;;4505326;28;20116;-59
2022/03/25 06:28:07;;;;;;;12.70;9.93;;;;;;;;;;4504669;28;20026;-59
2022/03/25 06:30:19;;;;;;;12.45;9.38;;;;;;;;;;4503498;28;20580;-60
2022/03/25 06:32:29;;;;;;;14.00;10.57;;;;;;;;;;4519187;28;20089;-59
2022/03/25 06:34:40;;;;;;;14.20;10.13;;;;;;;;;;4502589;28;30203;-59
2022/03/25 06:36:50;;;;;;;13.47;10.27;;;;;;;;;;4503958;28;20038;-59
2022/03/25 06:39:00;;;;;;;13.30;10.53;;;;;;;;;;4503775;28;20045;-59
2022/03/25 06:41:11;;;;;;;14.20;10.60;;;;;;;;;;4505541;28;20117;-59
2022/03/25 06:43:22;;;;;;;13.80;11.00;;;;;;;;;;4504474;28;20041;-59
2022/03/25 06:45:32;;;;;;;14.03;10.87;;;;;;;;;;4507154;28;20529;-59
2022/03/25 06:47:43;;;;;;;13.53;10.63;;;;;;;;;;4504336;28;20037;-59
2022/03/25 06:49:54;;;;;;;16.23;11.05;;;;;;;;;;4503964;28;20088;-60
2022/03/25 06:52:04;;;;;;;14.03;11.13;;;;;;;;;;4503991;28;20053;-60
2022/03/25 06:54:15;;;;;;;14.07;11.13;;;;;;;;;;4503523;28;20132;-59
2022/03/25 06:56:26;;;;;;;15.67;11.43;;;;;;;;;;4498829;28;20121;-59
2022/03/25 06:58:37;;;;;;;15.23;11.53;;;;;;;;;;4503804;28;20029;-60
2022/03/25 07:00:48;;;;;;;14.50;11.38;;;;;;;;;;4502546;28;20030;-59
2022/03/25 07:02:59;;;;;;;14.60;11.53;;;;;;;;;;4502835;28;20042;-59
2022/03/25 07:05:10;;;;;;;13.23;10.70;;;;;;;;;;4498865;28;20033;-59
2022/03/25 07:07:25;;;;;;;16.00;10.73;;;;;;;;;;4504115;28;20030;-59
2022/03/25 07:09:35;;;;;;;14.73;11.50;;;;;;;;;;4486017;28;20603;-60
2022/03/25 07:11:47;;;;;;;15.97;12.40;;;;;;;;;;4503358;28;20069;-60
2022/03/25 07:13:57;;;;;;;16.85;12.10;;;;;;;;;;4504304;28;20856;-60
2022/03/25 07:16:08;;;;;;;15.20;11.60;;;;;;;;;;4519369;28;20046;-60
2022/03/25 07:18:18;;;;;;;15.67;11.67;;;;;;;;;;4503291;28;28774;-60
2022/03/25 07:20:29;;;;;;;14.00;11.17;;;;;;;;;;4502852;28;33508;-60
2022/03/25 07:22:44;;;;;;;14.00;10.97;;;;;;;;;;4503533;28;20038;-60
2022/03/25 07:24:54;;;;;;;15.35;11.05;;;;;;;;;;4497806;28;20088;-60
2022/03/25 07:27:05;;;;;;;15.23;11.33;;;;;;;;;;4503644;28;20452;-60
2022/03/25 07:29:15;;;;;;;14.27;11.30;;;;;;;;;;4503273;28;20053;-60
2022/03/25 07:31:28;;;;;;;15.00;10.93;;;;;;;;;;4485638;28;20088;-60
2022/03/25 07:33:38;;;;;;;14.38;11.05;;;;;;;;;;4495041;28;20042;-60
2022/03/25 07:35:49;;;;;;;14.40;11.00;;;;;;;;;;4502003;28;20510;-60
2022/03/25 07:37:59;;;;;;;14.57;10.77;;;;;;;;;;4502470;28;20060;-60
2022/03/25 07:40:12;;;;;;;14.23;10.67;;;;;;;;;;4502177;28;20066;-60
2022/03/25 07:42:23;;;;;;;14.73;11.45;;;;;;;;;;4502789;28;20041;-60
2022/03/25 07:44:34;;;;;;;14.60;11.03;;;;;;;;;;4502415;28;20049;-60
2022/03/25 07:46:44;;;;;;;15.85;12.27;;;;;;;;;;4502658;28;20060;-60
2022/03/25 07:48:55;;;;;;;14.63;11.40;;;;;;;;;;4484580;28;37852;-60
2022/03/25 07:51:06;;;;;;;15.88;11.88;;;;;;;;;;4463663;28;1114962;-60
2022/03/25 07:53:17;;;;;;;15.55;11.65;;;;;;;;;;4504307;28;20042;-60
2022/03/25 07:55:28;;;;;;;16.20;12.43;;;;;;;;;;4503951;28;20486;-60
2022/03/25 07:57:39;;;;;;;15.43;11.57;;;;;;;;;;4503361;28;20044;-60
2022/03/25 07:59:49;;;;;;;15.88;11.20;;;;;;;;;;4502110;28;20030;-60
2022/03/25 08:02:00;;;;;;;15.23;10.97;;;;;;;;;;4502986;28;20503;-60
2022/03/25 08:04:10;;;;;;;14.73;11.50;;;;;;;;;;4498612;28;20026;-60
2022/03/25 08:06:20;;;;;;;14.00;11.10;;;;;;;;;;4503244;28;20038;-60
2022/03/25 08:08:31;;;;;;;14.53;11.43;;;;;;;;;;4502728;28;20171;-60
2022/03/25 08:10:41;;;;;;;14.97;11.30;;;;;;;;;;4503372;28;20498;-60
2022/03/25 08:12:54;;;;;;;15.17;11.67;;;;;;;;;;4502713;28;20050;-61
2022/03/25 08:15:06;;;;;;;15.40;11.63;;;;;;;;;;4502907;28;20109;-60
2022/03/25 08:17:18;;;;;;;16.02;12.02;;;;;;;;;;4518223;28;20033;-60
2022/03/25 08:19:31;;;;;;;16.27;11.68;;;;;;;;;;4503078;28;21016;-60
2022/03/25 08:21:42;;;;;;;16.50;11.77;;;;;;;;;;4485419;28;20034;-60
2022/03/25 08:28:50;;;;;;;16.50;11.68;;;;;;;;;;4502559;28;20045;-60
2022/03/25 08:31:01;;;;;;;15.47;11.03;;;;;;;;;;4501109;28;20109;-60
2022/03/25 08:33:12;;;;;;;16.20;11.77;;;;;;;;;;4503026;28;20412;-60
2022/03/25 08:35:23;;;;;;;16.15;11.38;;;;;;;;;;4501658;28;20038;-60
2022/03/25 08:37:33;;;;;;;14.10;11.37;;;;;;;;;;4502345;28;20061;-60
2022/03/25 08:39:44;;;;;;;15.30;10.90;;;;;;;;;;4503446;28;20038;-60
2022/03/25 08:41:54;;;;;;;15.63;10.60;;;;;;;;;;4503008;28;20486;-60
2022/03/25 08:44:06;;;;;;;14.63;10.80;;;;;;;;;;4502248;28;20036;-60
2022/03/25 08:46:18;;;;;;;14.27;10.77;;;;;;;;;;4494747;28;20052;-60
2022/03/25 08:48:29;;;;;;;13.43;11.00;;;;;;;;;;4503169;28;20042;-60
2022/03/25 08:50:40;;;;;;;16.37;10.67;;;;;;;;;;4500495;28;20038;-60
2022/03/25 08:52:51;;;;;;;16.53;10.80;;;;;;;;;;4501640;28;20954;-62
2022/03/25 08:55:03;;;;;;;;;;;;;;;;;;4500985;28;21256;-60
2022/03/25 08:57:13;;;;;;;13.80;9.37;;;;;;;;;;4501891;28;19921;-60
2022/03/25 08:59:23;;;;;;;16.03;10.80;;;;;;;;;;4501688;28;20042;-60
2022/03/25 09:01:34;;;;;;;15.03;9.80;;;;;;;;;;4501975;28;20049;-60
2022/03/25 09:03:44;;;;;;;14.20;9.83;;;;;;;;;;4479808;28;20093;-60
2022/03/25 09:05:55;;;;;;;15.33;9.40;;;;;;;;;;4501853;28;20473;-60
2022/03/25 09:08:06;;;;;;;14.80;9.53;;;;;;;;;;4502278;28;20034;-60
2022/03/25 09:10:17;;;;;;;12.43;9.27;;;;;;;;;;4501058;28;20124;-59
2022/03/25 09:12:27;;;;;;;14.00;9.70;;;;;;;;;;4501660;28;20164;-60
2022/03/25 09:14:38;;;;;;;13.63;9.40;;;;;;;;;;4502677;28;20108;-59
2022/03/25 09:16:48;;;;;;;12.40;8.90;;;;;;;;;;4495962;28;20092;-59
2022/03/25 09:18:59;;;;;;;12.20;8.80;;;;;;;;;;4502354;28;20033;-60
2022/03/25 09:21:10;;;;;;;13.53;8.70;;;;;;;;;;4501898;28;20047;-60
2022/03/25 09:23:20;;;;;;;11.67;8.40;;;;;;;;;;4501346;28;20381;-60
2022/03/25 09:25:30;;;;;;;11.63;8.27;;;;;;;;;;4502057;28;20615;-60
2022/03/25 09:27:41;;;;;;;12.83;7.80;;;;;;;;;;4505026;28;20026;-61
2022/03/25 09:29:52;;;;;;;12.27;7.53;;;;;;;;;;4501959;28;20037;-60
2022/03/25 09:32:03;;;;;;;11.67;7.97;;;;;;;;;;4494741;28;20111;-60
2022/03/25 09:36:43;;;;;;;12.95;7.65;;;;;;;;;;4501655;28;20369;-60
2022/03/25 09:38:53;;;;;;;11.82;8.25;;;;;;;;;;4501103;28;20033;-61
2022/03/25 09:41:06;;;;;;;12.07;7.30;;;;;;;;;;4501443;28;20591;-60
2022/03/25 09:43:19;;;;;;;13.10;8.15;;;;;;;;;;4503114;28;20034;-60
2022/03/25 09:45:30;;;;;;;12.77;7.93;;;;;;;;;;4500273;28;20034;-60
2022/03/25 09:47:41;;;;;;;13.57;8.05;;;;;;;;;;4500867;28;20120;-60
2022/03/25 09:49:52;;;;;;;13.03;7.80;;;;;;;;;;4501892;28;20133;-60
2022/03/25 09:52:03;;;;;;;11.50;7.43;;;;;;;;;;4500687;28;20046;-60
2022/03/25 09:54:14;;;;;;;11.80;7.70;;;;;;;;;;4500237;28;20034;-60
2022/03/25 09:56:25;;;;;;;13.68;7.93;;;;;;;;;;4516301;28;20600;-60
2022/03/25 09:58:35;;;;;;;12.60;7.80;;;;;;;;;;4501497;28;20064;-60
2022/03/25 10:00:50;;;;;;;11.97;7.47;;;;;;;;;;4516756;28;20034;-60
2022/03/25 10:03:01;;;;;;;11.65;6.95;;;;;;;;;;4501568;28;20990;-60
2022/03/25 10:05:18;;;;;;;11.17;7.10;;;;;;;;;;4500558;28;39237;-60
2022/03/25 10:07:33;;;;;;;11.35;7.28;;;;;;;;;;4500736;28;20031;-60
2022/03/25 10:09:45;;;;;;;12.38;7.53;;;;;;;;;;4501840;28;20632;-60
2022/03/25 10:11:56;;;;;;;12.73;7.03;;;;;;;;;;4494146;28;20050;-60
2022/03/25 10:14:21;;;;;;;12.67;7.60;;;;;;;;;;4501316;28;20038;-60
2022/03/25 10:16:31;;;;;;;12.20;7.80;;;;;;;;;;4500326;28;20800;-60
2022/03/25 10:18:51;;;;;;;11.33;7.03;;;;;;;;;;4500987;28;20042;-60
2022/03/25 10:21:02;;;;;;;11.38;7.40;;;;;;;;;;4500429;28;20046;-60
2022/03/25 10:23:17;;;;;;;11.77;7.17;;;;;;;;;;4500491;28;22992;-60
2022/03/25 10:25:41;;;;;;;12.10;6.90;;;;;;;;;;4501521;28;20584;-60
2022/03/25 10:27:51;;;;;;;11.60;6.93;;;;;;;;;;4501149;28;20615;-60
2022/03/25 10:30:05;;;;;;;11.27;7.20;;;;;;;;;;4501420;28;20151;-60
2022/03/25 10:32:19;;;;;;;12.52;7.32;;;;;;;;;;4501560;28;20660;-60
2022/03/25 10:34:30;;;;;;;13.45;7.10;;;;;;;;;;4496574;28;20706;-60
2022/03/25 10:36:58;;;;;;;12.05;6.72;;;;;;;;;;4500019;28;20612;-60
2022/03/25 10:39:16;;;;;;;11.07;7.07;;;;;;;;;;4500686;28;20128;-59
2022/03/25 10:41:59;;;;;;;10.73;6.40;;;;;;;;;;4501282;28;20042;-60
2022/03/25 10:44:10;;;;;;;12.13;6.28;;;;;;;;;;4495116;28;20121;-60
2022/03/25 10:46:33;;;;;;;9.95;6.05;;;;;;;;;;4500873;28;20511;-60
2022/03/25 10:48:53;;;;;;;9.30;5.43;;;;;;;;;;4501340;28;20034;-59
2022/03/25 10:51:08;;;;;;;8.48;5.13;;;;;;;;;;4500148;28;20593;-59
2022/03/25 10:53:21;;;;;;;10.10;4.90;;;;;;;;;;4494823;28;20046;-59
2022/03/25 10:55:31;;;;;;;8.20;4.43;;;;;;;;;;4503192;28;20769;-60
2022/03/25 10:57:58;;;;;;;8.47;4.80;;;;;;;;;;4504372;28;20038;-59
2022/03/25 11:00:11;;;;;;;8.90;4.80;;;;;;;;;;4486125;28;20104;-60
2022/03/25 11:02:22;;;;;;;9.13;4.93;;;;;;;;;;4503913;28;20132;-60
2022/03/25 11:04:33;;;;;;;10.60;5.43;;;;;;;;;;4519193;28;20775;-60
2022/03/25 11:06:45;;;;;;;9.15;5.07;;;;;;;;;;4503046;28;20337;-60
2022/03/25 11:08:55;;;;;;;8.70;5.05;;;;;;;;;;4498131;28;20073;-61
2022/03/25 11:11:07;;;;;;;10.20;5.17;;;;;;;;;;4503407;28;20120;-61
2022/03/25 11:13:18;;;;;;;8.93;5.18;;;;;;;;;;4503189;28;20845;-60
2022/03/25 11:15:30;;;;;;;9.60;5.27;;;;;;;;;;4503118;28;27704;-61
2022/03/25 11:17:42;;;;;;;10.20;5.72;;;;;;;;;;4503799;28;20033;-61
2022/03/25 11:19:53;;;;;;;9.65;5.93;;;;;;;;;;4503490;28;20144;-59
2022/03/25 11:22:04;;;;;;;8.18;5.03;;;;;;;;;;4517769;28;20181;-59
2022/03/25 11:24:19;;;;;;;9.88;5.57;;;;;;;;;;4502897;28;20912;-60
2022/03/25 11:26:30;;;;;;;9.45;5.55;;;;;;;;;;4502776;28;20072;-59
2022/03/25 11:28:41;;;;;;;10.43;5.50;;;;;;;;;;4487844;28;20113;-59
2022/03/25 11:31:04;;;;;;;10.17;5.33;;;;;;;;;;4503055;28;20042;-59
2022/03/25 11:33:14;;;;;;;10.13;5.72;;;;;;;;;;4503779;28;20998;-57
2022/03/25 11:35:25;;;;;;;10.03;5.50;;;;;;;;;;4499577;28;20040;-58
2022/03/25 11:37:35;;;;;;;10.23;5.77;;;;;;;;;;4504237;28;20120;-58
2022/03/25 11:39:45;;;;;;;10.33;5.20;;;;;;;;;;4501968;28;20094;-58
2022/03/25 11:42:07;;;;;;;9.70;5.43;;;;;;;;;;4502406;28;20053;-57
2022/03/25 11:44:18;;;;;;;10.20;6.25;;;;;;;;;;4485583;28;20046;-57
2022/03/25 11:46:29;;;;;;;9.80;5.45;;;;;;;;;;4497018;28;20042;-58
2022/03/25 11:48:40;;;;;;;11.97;5.83;;;;;;;;;;4502031;28;22541;-58
2022/03/25 11:50:55;;;;;;;10.63;6.10;;;;;;;;;;4481685;28;20077;-58
2022/03/25 11:53:11;;;;;;;9.90;6.03;;;;;;;;;;4503289;28;20104;-57
2022/03/25 11:55:22;;;;;;;10.27;6.03;;;;;;;;;;4503926;28;20034;-58
2022/03/25 11:57:34;;;;;;;10.87;6.00;;;;;;;;;;4504002;28;20037;-58
2022/03/25 11:59:49;;;;;;;11.90;6.28;;;;;;;;;;4503829;28;20030;-58
2022/03/25 12:02:25;;;;;;;10.50;6.35;;;;;;;;;;4475768;28;20046;-58
2022/03/25 12:04:37;;;;;;;9.00;5.50;;;;;;;;;;4502843;28;20579;-58
2022/03/25 12:07:00;;;;;;;9.50;5.65;;;;;;;;;;4502458;28;20026;-59
2022/03/25 12:09:19;;;;;;;10.95;6.03;;;;;;;;;;4502827;28;20029;-59
2022/03/25 12:11:56;;;;;;;9.90;5.72;;;;;;;;;;4503416;28;20038;-59
2022/03/25 12:14:06;;;;;;;10.07;5.90;;;;;;;;;;4497709;28;20683;-58
2022/03/25 12:16:45;;;;;;;10.90;6.17;;;;;;;;;;4502595;28;20497;-59
2022/03/25 12:18:55;;;;;;;11.93;6.72;;;;;;;;;;4501697;28;20041;-58
2022/03/25 12:21:33;;;;;;;13.13;7.27;;;;;;;;;;4501481;28;20034;-58
2022/03/25 12:23:54;;;;;;;11.65;6.55;;;;;;;;;;4503491;28;20044;-58
2022/03/25 12:26:05;;;;;;;13.30;6.88;;;;;;;;;;4503160;28;20132;-58
2022/03/25 12:28:23;;;;;;;11.20;6.77;;;;;;;;;;4502519;28;20146;-58
2022/03/25 12:30:36;;;;;;;10.23;6.78;;;;;;;;;;4503441;28;20085;-58
2022/03/25 12:32:46;;;;;;;11.90;7.15;;;;;;;;;;4501593;28;21028;-58
2022/03/25 12:35:13;;;;;;;11.07;6.80;;;;;;;;;;4503191;28;20168;-58
2022/03/25 12:37:28;;;;;;;11.85;6.97;;;;;;;;;;4502236;28;20034;-58
2022/03/25 12:39:39;;;;;;;12.70;7.60;;;;;;;;;;4475142;28;20038;-58
2022/03/25 12:41:51;;;;;;;11.67;7.17;;;;;;;;;;4503467;28;20033;-58
2022/03/25 12:44:02;;;;;;;12.13;7.32;;;;;;;;;;4501273;28;20042;-58
2022/03/25 12:46:14;;;;;;;11.10;7.20;;;;;;;;;;4496073;28;20045;-58
2022/03/25 12:48:24;;;;;;;;;;;;;;;;;;4503588;28;20585;-58
2022/03/25 12:50:35;;;;;;;12.35;7.38;;;;;;;;;;4502873;28;19992;-58
2022/03/25 12:52:46;;;;;;;13.07;7.90;;;;;;;;;;4502506;28;20038;-58
2022/03/25 12:55:11;;;;;;;12.30;7.73;;;;;;;;;;4502937;28;20688;-58
2022/03/25 12:57:40;;;;;;;13.40;7.55;;;;;;;;;;4502132;28;20025;-58
2022/03/25 12:59:55;;;;;;;10.32;6.47;;;;;;;;;;4501731;28;20029;-59
2022/03/25 13:02:10;;;;;;;11.10;7.00;;;;;;;;;;4501842;28;20099;-58